createdAt,value
2022-12-27T00:00:31.655Z,0.84
2022-12-27T00:02:58.884Z,0.76
2022-12-27T00:05:26.022Z,0.79
2022-12-27T00:07:53.161Z,0.67
2022-12-27T00:10:20.388Z,0.76
2022-12-27T00:12:47.642Z,0.72
2022-12-27T00:15:14.969Z,0.81
2022-12-27T00:17:43.499Z,0.82
2022-12-27T00:20:12.136Z,0.72
2022-12-27T00:22:40.019Z,0.84
2022-12-27T00:25:08.405Z,0.67
2022-12-27T00:27:35.602Z,0.93
2022-12-27T00:30:03.046Z,0.72
2022-12-27T00:32:30.224Z,0.85
2022-12-27T00:34:58.723Z,0.90
2022-12-27T00:37:25.812Z,0.84
2022-12-27T00:39:52.943Z,0.81
2022-12-27T00:42:20.123Z,0.86
2022-12-27T00:44:47.251Z,0.95
2022-12-27T00:47:14.485Z,1.21
2022-12-27T00:49:41.640Z,1.94
2022-12-27T00:52:10.315Z,2.14
2022-12-27T00:54:37.547Z,2.00
2022-12-27T00:57:04.756Z,1.57
2022-12-27T00:59:32.041Z,1.48
2022-12-27T01:01:59.241Z,1.55
2022-12-27T01:04:26.929Z,1.61
2022-12-27T01:06:54.015Z,1.57
2022-12-27T01:09:22.812Z,1.32
2022-12-27T01:11:49.990Z,1.32
2022-12-27T01:14:17.189Z,1.19
2022-12-27T01:16:44.458Z,1.06
2022-12-27T01:19:12.011Z,1.16
2022-12-27T01:21:39.851Z,1.15
2022-12-27T01:24:07.298Z,1.31
2022-12-27T01:26:35.944Z,1.20
2022-12-27T01:29:03.105Z,1.09
2022-12-27T01:31:30.259Z,1.28
2022-12-27T01:33:59.580Z,1.46
2022-12-27T01:36:29.104Z,1.36
2022-12-27T01:38:56.486Z,1.17
2022-12-27T01:41:26.644Z,1.19
2022-12-27T01:43:55.449Z,1.26
2022-12-27T01:46:23.009Z,1.22
2022-12-27T01:48:51.001Z,1.23
2022-12-27T01:51:19.349Z,1.18
2022-12-27T01:53:51.091Z,1.08
2022-12-27T01:56:25.852Z,1.14
2022-12-27T01:59:00.258Z,1.11
2022-12-27T02:01:32.660Z,1.15
2022-12-27T02:04:05.311Z,1.09
2022-12-27T02:06:34.795Z,1.25
2022-12-27T02:09:09.169Z,1.25
2022-12-27T02:11:38.468Z,1.16
2022-12-27T02:14:07.978Z,1.15
2022-12-27T02:16:35.095Z,1.09
2022-12-27T02:19:02.473Z,1.01
2022-12-27T02:22:03.720Z,0.99
2022-12-27T02:24:49.435Z,0.94
2022-12-27T02:27:35.541Z,0.91
2022-12-27T02:30:06.410Z,0.96
2022-12-27T02:32:40.904Z,0.82
2022-12-27T02:35:14.725Z,0.95
2022-12-27T02:37:48.055Z,0.92
2022-12-27T02:40:21.005Z,0.87
2022-12-27T02:42:51.630Z,0.76
2022-12-27T02:45:29.532Z,0.93
2022-12-27T02:47:56.695Z,0.97
2022-12-27T02:50:35.980Z,0.82
2022-12-27T02:53:12.740Z,0.85
2022-12-27T02:55:54.927Z,0.92
2022-12-27T02:58:32.004Z,0.91
2022-12-27T03:01:25.158Z,0.82
2022-12-27T03:04:16.688Z,0.91
2022-12-27T03:06:57.095Z,0.92
2022-12-27T03:10:00.343Z,0.90
2022-12-27T03:12:45.290Z,0.82
2022-12-27T03:15:33.443Z,0.77
2022-12-27T03:18:10.789Z,0.82
2022-12-27T03:20:42.465Z,0.78
2022-12-27T03:23:11.606Z,0.77
2022-12-27T03:25:43.067Z,0.96
2022-12-27T03:28:17.424Z,0.97
2022-12-27T03:30:51.428Z,0.98
2022-12-27T03:33:20.171Z,0.87
2022-12-27T03:35:54.055Z,0.83
2022-12-27T03:38:21.388Z,0.76
2022-12-27T03:40:56.307Z,0.91
2022-12-27T03:43:23.507Z,0.80
2022-12-27T03:45:56.933Z,0.82
2022-12-27T03:48:34.759Z,0.76
2022-12-27T03:51:06.420Z,0.73
2022-12-27T03:53:39.616Z,0.85
2022-12-27T03:56:09.574Z,0.80
2022-12-27T03:58:36.807Z,0.76
2022-12-27T04:01:03.991Z,0.85
2022-12-27T04:03:32.546Z,0.90
2022-12-27T04:05:59.702Z,0.90
2022-12-27T04:08:26.744Z,0.76
2022-12-27T04:10:54.023Z,0.79
2022-12-27T04:13:21.055Z,0.73
2022-12-27T04:15:48.136Z,0.68
2022-12-27T04:18:15.357Z,0.45
2022-12-27T04:20:43.982Z,0.76
2022-12-27T04:23:11.328Z,0.84
2022-12-27T04:25:38.488Z,0.87
2022-12-27T04:28:05.686Z,0.71
2022-12-27T04:30:32.849Z,0.86
2022-12-27T04:33:00.044Z,0.83
2022-12-27T04:35:27.445Z,0.71
2022-12-27T04:37:56.069Z,0.78
2022-12-27T04:40:23.210Z,0.79
2022-12-27T04:42:50.349Z,0.84
2022-12-27T04:45:17.685Z,0.69
2022-12-27T04:47:44.967Z,0.61
2022-12-27T04:50:23.893Z,0.92
2022-12-27T04:52:51.036Z,0.78
2022-12-27T04:55:22.556Z,0.80
2022-12-27T04:57:50.317Z,0.74
2022-12-27T05:00:18.905Z,0.76
2022-12-27T05:02:46.264Z,0.80
2022-12-27T05:05:13.595Z,0.78
2022-12-27T05:07:40.871Z,0.74
2022-12-27T05:10:09.247Z,0.77
2022-12-27T05:12:37.805Z,0.88
2022-12-27T05:15:05.626Z,0.81
2022-12-27T05:17:32.722Z,1.08
2022-12-27T05:19:59.845Z,1.15
2022-12-27T05:22:27.946Z,0.87
2022-12-27T05:24:55.089Z,1.15
2022-12-27T05:27:22.302Z,0.93
2022-12-27T05:29:50.841Z,1.07
2022-12-27T05:32:17.882Z,1.18
2022-12-27T05:34:45.033Z,1.08
2022-12-27T05:37:12.238Z,0.97
2022-12-27T05:39:39.420Z,1.50
2022-12-27T05:42:06.660Z,1.32
2022-12-27T05:44:33.896Z,1.21
2022-12-27T05:47:02.564Z,1.28
2022-12-27T05:49:29.728Z,1.38
2022-12-27T05:51:56.897Z,1.33
2022-12-27T05:54:24.110Z,1.10
2022-12-27T05:56:51.322Z,1.09
2022-12-27T05:59:18.453Z,1.03
2022-12-27T06:01:45.690Z,0.97
2022-12-27T06:04:14.719Z,1.19
2022-12-27T06:06:41.919Z,1.06
2022-12-27T06:09:09.121Z,1.22
2022-12-27T06:11:36.256Z,1.04
2022-12-27T06:14:03.396Z,1.08
2022-12-27T06:16:30.520Z,1.34
2022-12-27T06:18:57.619Z,1.43
2022-12-27T06:21:26.319Z,1.31
2022-12-27T06:23:53.516Z,0.95
2022-12-27T06:26:23.396Z,1.19
2022-12-27T06:28:51.312Z,1.44
2022-12-27T06:31:20.963Z,1.27
2022-12-27T06:33:49.684Z,1.31
2022-12-27T06:36:20.172Z,1.32
2022-12-27T06:38:48.895Z,1.56
2022-12-27T06:41:18.231Z,1.44
2022-12-27T06:43:46.594Z,1.55
2022-12-27T06:46:17.861Z,1.54
2022-12-27T06:48:46.634Z,1.50
2022-12-27T06:51:15.704Z,1.45
2022-12-27T06:53:42.888Z,1.95
2022-12-27T06:56:13.607Z,2.78
2022-12-27T06:58:40.708Z,2.42
2022-12-27T07:01:08.666Z,2.36
2022-12-27T07:03:37.202Z,2.43
2022-12-27T07:06:05.694Z,2.01
2022-12-27T07:08:34.531Z,1.65
2022-12-27T07:11:03.016Z,1.81
2022-12-27T07:13:34.451Z,2.18
2022-12-27T07:16:04.618Z,1.98
2022-12-27T07:18:31.873Z,1.87
2022-12-27T07:20:59.229Z,2.18
2022-12-27T07:23:26.408Z,1.95
2022-12-27T07:25:53.551Z,1.90
2022-12-27T07:28:20.630Z,2.32
2022-12-27T07:30:49.250Z,2.57
2022-12-27T07:33:16.408Z,2.36
2022-12-27T07:35:45.176Z,2.15
2022-12-27T07:38:12.755Z,2.20
2022-12-27T07:40:40.069Z,1.84
2022-12-27T07:43:07.108Z,2.12
2022-12-27T07:45:34.211Z,1.98
2022-12-27T07:48:03.092Z,1.85
2022-12-27T07:50:30.148Z,1.81
2022-12-27T07:52:57.310Z,1.63
2022-12-27T07:55:24.724Z,1.69
2022-12-27T07:57:51.848Z,1.51
2022-12-27T08:00:19.569Z,1.38
2022-12-27T08:02:46.708Z,1.22
2022-12-27T08:05:15.516Z,1.38
2022-12-27T08:07:42.668Z,1.26
2022-12-27T08:10:10.972Z,1.25
2022-12-27T08:12:38.091Z,1.22
2022-12-27T08:15:06.171Z,1.26
2022-12-27T08:17:33.329Z,1.51
2022-12-27T08:20:00.495Z,1.40
2022-12-27T08:22:29.174Z,1.49
2022-12-27T08:24:56.469Z,1.38
2022-12-27T08:27:25.191Z,1.26
2022-12-27T08:29:52.393Z,1.50
2022-12-27T08:32:19.653Z,1.40
2022-12-27T08:34:46.937Z,1.29
2022-12-27T08:37:14.010Z,1.38
2022-12-27T08:39:42.906Z,1.59
2022-12-27T08:42:12.627Z,1.68
2022-12-27T08:44:39.907Z,1.35
2022-12-27T08:47:07.359Z,1.67
2022-12-27T08:49:34.494Z,1.45
2022-12-27T08:52:01.646Z,1.59
2022-12-27T08:54:28.815Z,1.42
2022-12-27T08:56:57.406Z,1.63
2022-12-27T08:59:24.515Z,1.62
2022-12-27T09:01:51.663Z,1.55
2022-12-27T09:04:18.804Z,1.48
2022-12-27T09:06:45.985Z,1.45
2022-12-27T09:09:14.045Z,1.47
2022-12-27T09:11:41.169Z,1.24
2022-12-27T09:14:09.888Z,1.34
2022-12-27T09:16:36.993Z,1.27
2022-12-27T09:19:04.629Z,1.54
2022-12-27T09:21:34.194Z,1.63
2022-12-27T09:24:01.429Z,1.53
2022-12-27T09:26:30.376Z,1.47
2022-12-27T09:28:58.547Z,1.33
2022-12-27T09:31:41.763Z,1.20
2022-12-27T09:34:10.305Z,1.11
2022-12-27T09:36:39.647Z,1.09
2022-12-27T09:39:06.794Z,1.15
2022-12-27T09:42:45.981Z,1.09
2022-12-27T09:44:48.996Z,0.85
2022-12-27T09:47:24.392Z,1.20
2022-12-27T09:49:55.552Z,0.96
2022-12-27T09:52:30.448Z,1.07
2022-12-27T09:55:05.742Z,1.12
2022-12-27T09:57:38.790Z,1.16
2022-12-27T10:00:15.442Z,1.28
2022-12-27T10:02:45.352Z,1.27
2022-12-27T10:05:21.520Z,0.81
2022-12-27T10:08:03.434Z,0.91
2022-12-27T10:10:42.695Z,0.63
2022-12-27T10:13:24.872Z,0.84
2022-12-27T10:16:04.608Z,0.92
2022-12-27T10:18:46.607Z,0.87
2022-12-27T10:21:21.424Z,1.26
2022-12-27T10:23:55.175Z,0.98
2022-12-27T10:26:22.943Z,1.10
2022-12-27T10:28:57.730Z,1.19
2022-12-27T10:31:27.009Z,1.23
2022-12-27T10:33:55.913Z,0.97
2022-12-27T10:36:26.444Z,1.04
2022-12-27T10:38:53.743Z,1.15
2022-12-27T10:41:33.842Z,1.36
2022-12-27T10:44:00.953Z,1.30
2022-12-27T10:46:33.493Z,1.23
2022-12-27T10:49:22.619Z,1.21
2022-12-27T10:51:52.580Z,1.20
2022-12-27T10:54:24.885Z,1.27
2022-12-27T10:56:52.754Z,1.17
2022-12-27T10:59:22.216Z,1.18
2022-12-27T11:02:07.417Z,1.51
2022-12-27T11:04:36.143Z,1.23
2022-12-27T11:07:18.359Z,1.30
2022-12-27T11:09:51.181Z,1.01
2022-12-27T11:12:21.534Z,1.01
2022-12-27T11:14:58.193Z,1.31
2022-12-27T11:17:29.819Z,1.10
2022-12-27T11:20:03.299Z,1.27
2022-12-27T11:22:30.554Z,1.30
2022-12-27T11:25:00.906Z,1.05
2022-12-27T11:27:30.746Z,1.23
2022-12-27T11:30:00.031Z,1.11
2022-12-27T11:32:27.605Z,0.77
2022-12-27T11:34:58.240Z,0.77
2022-12-27T11:37:27.781Z,0.93
2022-12-27T11:40:11.387Z,0.80
2022-12-27T11:42:44.939Z,0.73
2022-12-27T11:45:21.075Z,1.03
2022-12-27T11:47:54.677Z,1.13
2022-12-27T11:50:57.514Z,1.12
2022-12-27T11:53:57.777Z,0.99
2022-12-27T11:56:28.731Z,1.03
2022-12-27T11:59:34.520Z,1.01
2022-12-27T12:02:27.002Z,0.95
2022-12-27T12:05:47.656Z,1.21
2022-12-27T12:08:45.161Z,1.43
2022-12-27T12:11:31.595Z,1.64
2022-12-27T12:14:26.121Z,1.19
2022-12-27T12:17:36.278Z,1.36
2022-12-27T12:20:43.254Z,0.92
2022-12-27T12:23:30.459Z,1.27
2022-12-27T12:26:23.352Z,1.28
2022-12-27T12:29:22.980Z,1.30
2022-12-27T12:32:25.221Z,1.29
2022-12-27T12:35:18.780Z,1.88
2022-12-27T12:38:19.339Z,2.08
2022-12-27T12:41:18.841Z,0.80
2022-12-27T12:44:30.543Z,0.93
2022-12-27T12:47:13.425Z,1.04
2022-12-27T12:50:00.687Z,0.96
2022-12-27T12:52:49.189Z,0.91
2022-12-27T12:55:36.584Z,0.94
2022-12-27T12:58:29.267Z,1.02
2022-12-27T13:01:20.510Z,1.19
2022-12-27T13:04:07.348Z,1.08
2022-12-27T13:06:55.871Z,1.05
2022-12-27T13:09:40.503Z,0.97
2022-12-27T13:12:17.229Z,1.18
2022-12-27T13:15:19.074Z,0.79
2022-12-27T13:18:04.773Z,0.79
2022-12-27T13:21:04.559Z,2.24
2022-12-27T13:23:51.795Z,1.05
2022-12-27T13:26:31.911Z,1.15
2022-12-27T13:29:21.544Z,1.47
2022-12-27T13:32:04.684Z,1.74
2022-12-27T13:34:48.170Z,1.65
2022-12-27T13:37:32.610Z,1.27
2022-12-27T13:40:28.752Z,1.15
2022-12-27T13:43:29.331Z,1.00
2022-12-27T13:46:18.486Z,1.08
2022-12-27T13:49:07.707Z,0.97
2022-12-27T13:51:44.545Z,1.13
2022-12-27T13:55:14.531Z,1.38
2022-12-27T13:58:34.629Z,1.22
2022-12-27T14:01:31.750Z,1.14
2022-12-27T14:04:18.608Z,1.22
2022-12-27T14:07:05.570Z,1.21
2022-12-27T14:10:05.011Z,1.25
2022-12-27T14:12:56.996Z,1.08
2022-12-27T14:15:31.866Z,1.13
2022-12-27T14:18:25.512Z,1.23
2022-12-27T14:21:26.099Z,1.19
2022-12-27T14:24:11.910Z,0.99
2022-12-27T14:27:35.226Z,0.91
2022-12-27T14:30:38.216Z,1.14
2022-12-27T14:33:42.801Z,0.89
2022-12-27T14:36:41.248Z,1.13
2022-12-27T14:39:39.055Z,0.99
2022-12-27T14:42:45.429Z,1.11
2022-12-27T14:45:45.919Z,1.07
2022-12-27T14:48:56.227Z,1.11
2022-12-27T14:52:04.517Z,1.23
2022-12-27T14:55:19.208Z,1.74
2022-12-27T14:58:02.627Z,1.71
2022-12-27T15:01:03.183Z,1.30
2022-12-27T15:03:50.561Z,1.64
2022-12-27T15:06:46.209Z,1.80
2022-12-27T15:09:32.871Z,1.58
2022-12-27T15:12:18.149Z,1.71
2022-12-27T15:15:22.744Z,1.51
2022-12-27T15:18:10.712Z,1.29
2022-12-27T15:21:01.069Z,1.28
2022-12-27T15:23:39.241Z,1.28
2022-12-27T15:26:20.589Z,1.35
2022-12-27T15:29:22.750Z,1.70
2022-12-27T15:32:04.655Z,1.39
2022-12-27T15:35:18.688Z,1.58
2022-12-27T15:37:58.991Z,1.89
2022-12-27T15:40:54.491Z,1.68
2022-12-27T15:43:39.351Z,1.78
2022-12-27T15:46:36.665Z,2.33
2022-12-27T15:49:34.057Z,2.33
2022-12-27T15:52:13.828Z,2.32
2022-12-27T15:55:03.676Z,2.90
2022-12-27T15:58:02.410Z,6.35
2022-12-27T16:00:34.381Z,4.66
2022-12-27T16:03:33.373Z,7.53
2022-12-27T16:06:02.389Z,8.85
2022-12-27T16:08:36.693Z,6.11
2022-12-27T16:11:08.513Z,3.83
2022-12-27T16:13:49.511Z,2.75
2022-12-27T16:16:56.164Z,2.75
2022-12-27T16:19:52.609Z,2.46
2022-12-27T16:22:31.939Z,1.99
2022-12-27T16:25:30.684Z,2.09
2022-12-27T16:28:03.070Z,1.87
2022-12-27T16:30:44.330Z,2.10
2022-12-27T16:33:29.134Z,4.23
2022-12-27T16:36:14.387Z,2.83
2022-12-27T16:38:50.829Z,2.56
2022-12-27T16:41:55.270Z,2.00
2022-12-27T16:44:46.189Z,1.61
2022-12-27T16:47:36.028Z,1.57
2022-12-27T16:50:40.664Z,1.68
2022-12-27T16:53:23.377Z,1.29
2022-12-27T16:56:16.575Z,1.88
2022-12-27T16:58:44.071Z,1.56
2022-12-27T17:01:49.733Z,1.66
2022-12-27T17:04:52.733Z,1.73
2022-12-27T17:07:48.916Z,2.52
2022-12-27T17:10:57.656Z,2.63
2022-12-27T17:13:40.549Z,2.18
2022-12-27T17:16:15.750Z,1.99
2022-12-27T17:18:48.808Z,2.25
2022-12-27T17:21:29.661Z,2.47
2022-12-27T17:23:59.865Z,2.47
2022-12-27T17:26:58.412Z,2.70
2022-12-27T17:29:59.720Z,2.41
2022-12-27T17:32:43.110Z,3.23
2022-12-27T17:35:27.151Z,4.77
2022-12-27T17:38:11.546Z,4.45
2022-12-27T17:40:52.549Z,3.70
2022-12-27T17:43:42.969Z,3.20
2022-12-27T17:46:25.019Z,3.47
2022-12-27T17:48:54.128Z,3.71
2022-12-27T17:51:26.933Z,3.61
2022-12-27T17:53:56.311Z,4.32
2022-12-27T17:56:23.867Z,3.94
2022-12-27T17:59:01.575Z,4.15
2022-12-27T18:01:31.406Z,4.13
2022-12-27T18:04:00.769Z,3.64
2022-12-27T18:06:28.344Z,3.58
2022-12-27T18:08:58.519Z,3.76
2022-12-27T18:11:29.808Z,3.88
2022-12-27T18:13:59.281Z,3.43
2022-12-27T18:16:37.560Z,3.68
2022-12-27T18:19:05.693Z,6.38
2022-12-27T18:21:32.891Z,9.75
2022-12-27T18:24:00.167Z,5.94
2022-12-27T18:26:39.433Z,2.76
2022-12-27T18:29:11.915Z,2.51
2022-12-27T18:31:48.699Z,3.03
2022-12-27T18:34:27.571Z,3.24
2022-12-27T18:37:02.411Z,2.72
2022-12-27T18:39:33.870Z,2.51
2022-12-27T18:42:05.593Z,2.67
2022-12-27T18:44:50.087Z,2.57
2022-12-27T18:47:22.411Z,3.10
2022-12-27T18:49:55.541Z,3.05
2022-12-27T18:52:26.654Z,3.07
2022-12-27T18:54:54.889Z,2.32
2022-12-27T18:57:39.969Z,2.52
2022-12-27T19:00:20.307Z,2.32
2022-12-27T19:02:48.957Z,2.15
2022-12-27T19:05:26.389Z,2.09
2022-12-27T19:07:59.247Z,2.12
2022-12-27T19:10:29.439Z,3.56
2022-12-27T19:12:58.275Z,3.49
2022-12-27T19:15:35.658Z,2.81
2022-12-27T19:18:06.616Z,2.54
2022-12-27T19:20:36.754Z,2.80
2022-12-27T19:23:21.907Z,2.53
2022-12-27T19:25:59.478Z,2.64
2022-12-27T19:28:29.360Z,2.62
2022-12-27T19:31:14.734Z,2.60
2022-12-27T19:33:47.188Z,2.66
2022-12-27T19:36:14.882Z,2.65
2022-12-27T19:38:48.063Z,2.31
2022-12-27T19:41:19.103Z,2.39
2022-12-27T19:43:48.511Z,2.57
2022-12-27T19:46:18.087Z,2.50
2022-12-27T19:49:07.618Z,2.92
2022-12-27T19:51:32.944Z,3.35
2022-12-27T19:54:00.947Z,4.00
2022-12-27T19:56:28.226Z,3.27
2022-12-27T19:58:55.507Z,3.24
2022-12-27T20:01:24.666Z,2.78
2022-12-27T20:03:52.148Z,3.22
2022-12-27T20:06:24.028Z,3.47
2022-12-27T20:08:52.627Z,3.42
2022-12-27T20:11:22.548Z,3.79
2022-12-27T20:13:51.655Z,4.18
2022-12-27T20:16:21.102Z,3.73
2022-12-27T20:18:52.626Z,3.76
2022-12-27T20:21:21.925Z,3.06
2022-12-27T20:23:50.222Z,5.66
2022-12-27T20:26:20.358Z,6.33
2022-12-27T20:28:49.307Z,5.57
2022-12-27T20:31:20.642Z,3.10
2022-12-27T20:33:53.564Z,2.60
2022-12-27T20:36:21.031Z,2.59
2022-12-27T20:38:48.726Z,2.72
2022-12-27T20:41:18.685Z,2.89
2022-12-27T20:43:46.466Z,3.70
2022-12-27T20:46:17.249Z,3.64
2022-12-27T20:48:47.341Z,3.45
2022-12-27T20:51:20.546Z,4.82
2022-12-27T20:53:48.908Z,6.11
2022-12-27T20:56:17.248Z,6.21
2022-12-27T20:58:45.307Z,7.18
2022-12-27T21:01:14.735Z,9.80
2022-12-27T21:03:43.396Z,6.23
2022-12-27T21:06:13.148Z,4.56
2022-12-27T21:08:47.964Z,3.56
2022-12-27T21:11:22.468Z,3.66
2022-12-27T21:13:50.225Z,3.71
2022-12-27T21:16:21.592Z,4.32
2022-12-27T21:18:49.943Z,3.91
2022-12-27T21:21:20.018Z,4.12
2022-12-27T21:23:49.669Z,3.38
2022-12-27T21:26:19.466Z,3.24
2022-12-27T21:28:47.609Z,3.52
2022-12-27T21:31:16.695Z,3.75
2022-12-27T21:33:44.133Z,3.30
2022-12-27T21:36:13.427Z,3.20
2022-12-27T21:38:41.127Z,3.20
2022-12-27T21:41:12.707Z,3.17
2022-12-27T21:43:39.929Z,3.22
2022-12-27T21:46:11.694Z,3.13
2022-12-27T21:48:39.049Z,4.43
2022-12-27T21:51:08.248Z,4.78
2022-12-27T21:53:36.498Z,4.81
2022-12-27T21:56:04.569Z,4.41
2022-12-27T21:58:35.073Z,4.31
2022-12-27T22:01:08.404Z,4.40
2022-12-27T22:03:38.819Z,4.15
2022-12-27T22:06:10.962Z,4.49
2022-12-27T22:08:38.190Z,4.34
2022-12-27T22:11:05.485Z,4.44
2022-12-27T22:13:34.114Z,4.45
2022-12-27T22:16:03.534Z,4.37
2022-12-27T22:18:32.389Z,4.44
2022-12-27T22:21:01.309Z,4.71
2022-12-27T22:23:30.952Z,4.60
2022-12-27T22:25:58.334Z,4.32
2022-12-27T22:28:26.353Z,4.11
2022-12-27T22:30:55.285Z,3.62
2022-12-27T22:33:22.828Z,3.96
2022-12-27T22:35:49.932Z,4.07
2022-12-27T22:38:17.042Z,3.99
2022-12-27T22:40:45.818Z,4.18
2022-12-27T22:43:14.555Z,4.08
2022-12-27T22:45:41.805Z,4.18
2022-12-27T22:48:10.438Z,3.92
2022-12-27T22:50:37.768Z,3.94
2022-12-27T22:53:05.086Z,3.84
2022-12-27T22:55:32.371Z,4.00
2022-12-27T22:57:59.469Z,4.34
2022-12-27T23:00:26.631Z,4.74
2022-12-27T23:02:53.749Z,5.56
2022-12-27T23:05:22.392Z,5.07
2022-12-27T23:08:04.587Z,4.62
2022-12-27T23:10:34.467Z,4.30
2022-12-27T23:13:01.632Z,4.31
2022-12-27T23:15:28.869Z,4.37
2022-12-27T23:17:56.011Z,4.22
2022-12-27T23:20:24.709Z,4.25
2022-12-27T23:22:52.287Z,4.72
2022-12-27T23:25:19.528Z,4.56
2022-12-27T23:27:46.690Z,5.59
2022-12-27T23:30:14.951Z,6.10
2022-12-27T23:32:42.147Z,5.53
2022-12-27T23:35:09.888Z,5.44
2022-12-27T23:37:38.408Z,5.39
2022-12-27T23:40:07.048Z,4.48
2022-12-27T23:42:34.179Z,4.43
2022-12-27T23:45:01.361Z,4.17
2022-12-27T23:47:28.547Z,4.43
2022-12-27T23:49:55.928Z,4.46
2022-12-27T23:52:23.147Z,4.98
2022-12-27T23:54:51.817Z,5.30
2022-12-27T23:57:20.221Z,5.19
2022-12-27T23:59:48.148Z,4.93
